sensor_id;sensor_type;location;lat;lon;timestamp;temperature;humidity
20041;DHT22;10181;48.072;9.884;2023-04-15T00:01:22;1.50;99.90
20041;DHT22;10181;48.072;9.884;2023-04-15T00:03:50;1.60;99.90
20041;DHT22;10181;48.072;9.884;2023-04-15T00:06:17;1.60;99.90
20041;DHT22;10181;48.072;9.884;2023-04-15T00:08:44;1.60;99.90
20041;DHT22;10181;48.072;9.884;2023-04-15T00:11:10;1.60;99.90
20041;DHT22;10181;48.072;9.884;2023-04-15T00:13:35;1.60;99.90
20041;DHT22;10181;48.072;9.884;2023-04-15T00:16:02;1.70;99.90
20041;DHT22;10181;48.072;9.884;2023-04-15T00:18:27;1.70;99.90
20041;DHT22;10181;48.072;9.884;2023-04-15T00:20:56;1.70;99.90
20041;DHT22;10181;48.072;9.884;2023-04-15T00:23:22;1.70;99.90
20041;DHT22;10181;48.072;9.884;2023-04-15T00:25:47;1.70;99.90
20041;DHT22;10181;48.072;9.884;2023-04-15T00:28:13;1.70;99.90
20041;DHT22;10181;48.072;9.884;2023-04-15T00:30:38;1.70;99.90
20041;DHT22;10181;48.072;9.884;2023-04-15T00:33:04;1.70;99.90
20041;DHT22;10181;48.072;9.884;2023-04-15T00:35:31;1.70;99.90
20041;DHT22;10181;48.072;9.884;2023-04-15T00:38:01;1.60;99.90
20041;DHT22;10181;48.072;9.884;2023-04-15T00:40:26;1.60;99.90
20041;DHT22;10181;48.072;9.884;2023-04-15T00:42:52;1.60;99.90
20041;DHT22;10181;48.072;9.884;2023-04-15T00:45:18;1.50;99.90
20041;DHT22;10181;48.072;9.884;2023-04-15T00:47:44;1.50;99.90
20041;DHT22;10181;48.072;9.884;2023-04-15T00:50:10;1.50;99.90
20041;DHT22;10181;48.072;9.884;2023-04-15T00:52:37;1.50;99.90
20041;DHT22;10181;48.072;9.884;2023-04-15T00:55:04;1.50;99.90
20041;DHT22;10181;48.072;9.884;2023-04-15T00:57:30;1.40;99.90
20041;DHT22;10181;48.072;9.884;2023-04-15T00:59:56;1.40;99.90
20041;DHT22;10181;48.072;9.884;2023-04-15T01:02:23;1.40;99.90
20041;DHT22;10181;48.072;9.884;2023-04-15T01:04:49;1.40;99.90
20041;DHT22;10181;48.072;9.884;2023-04-15T01:07:15;1.40;99.90
20041;DHT22;10181;48.072;9.884;2023-04-15T01:09:42;1.40;99.90
20041;DHT22;10181;48.072;9.884;2023-04-15T01:12:11;1.40;99.90
20041;DHT22;10181;48.072;9.884;2023-04-15T01:14:38;1.30;99.90
20041;DHT22;10181;48.072;9.884;2023-04-15T01:17:04;1.20;99.90
20041;DHT22;10181;48.072;9.884;2023-04-15T01:19:30;1.10;99.90
20041;DHT22;10181;48.072;9.884;2023-04-15T01:21:56;1.10;99.90
20041;DHT22;10181;48.072;9.884;2023-04-15T01:24:22;1.00;99.90
20041;DHT22;10181;48.072;9.884;2023-04-15T01:26:49;1.00;99.90
20041;DHT22;10181;48.072;9.884;2023-04-15T01:29:14;1.00;99.90
20041;DHT22;10181;48.072;9.884;2023-04-15T01:31:47;1.00;99.90
20041;DHT22;10181;48.072;9.884;2023-04-15T01:34:14;1.00;99.90
20041;DHT22;10181;48.072;9.884;2023-04-15T01:36:39;1.00;99.90
20041;DHT22;10181;48.072;9.884;2023-04-15T01:39:05;0.90;99.90
20041;DHT22;10181;48.072;9.884;2023-04-15T01:41:31;0.90;99.90
20041;DHT22;10181;48.072;9.884;2023-04-15T01:43:57;0.80;99.90
20041;DHT22;10181;48.072;9.884;2023-04-15T01:46:22;0.80;99.90
20041;DHT22;10181;48.072;9.884;2023-04-15T01:48:48;0.80;99.90
20041;DHT22;10181;48.072;9.884;2023-04-15T01:51:14;0.80;99.90
20041;DHT22;10181;48.072;9.884;2023-04-15T01:53:39;0.80;99.90
20041;DHT22;10181;48.072;9.884;2023-04-15T01:56:05;0.70;99.90
20041;DHT22;10181;48.072;9.884;2023-04-15T01:58:31;0.70;99.90
20041;DHT22;10181;48.072;9.884;2023-04-15T02:00:57;0.70;99.90
20041;DHT22;10181;48.072;9.884;2023-04-15T02:03:24;0.70;99.90
20041;DHT22;10181;48.072;9.884;2023-04-15T02:05:49;0.70;99.90
20041;DHT22;10181;48.072;9.884;2023-04-15T02:08:15;0.70;99.90
20041;DHT22;10181;48.072;9.884;2023-04-15T02:10:41;0.70;99.90
20041;DHT22;10181;48.072;9.884;2023-04-15T02:13:07;0.70;99.90
20041;DHT22;10181;48.072;9.884;2023-04-15T02:15:33;0.70;99.90
20041;DHT22;10181;48.072;9.884;2023-04-15T02:17:59;0.70;99.90
20041;DHT22;10181;48.072;9.884;2023-04-15T02:20:26;0.70;99.90
20041;DHT22;10181;48.072;9.884;2023-04-15T02:22:51;0.70;99.90
20041;DHT22;10181;48.072;9.884;2023-04-15T02:25:17;0.60;99.90
20041;DHT22;10181;48.072;9.884;2023-04-15T02:27:43;0.60;99.90
20041;DHT22;10181;48.072;9.884;2023-04-15T02:30:09;0.60;99.90
20041;DHT22;10181;48.072;9.884;2023-04-15T02:32:35;0.60;99.90
20041;DHT22;10181;48.072;9.884;2023-04-15T02:35:05;0.50;99.90
20041;DHT22;10181;48.072;9.884;2023-04-15T02:37:32;0.50;99.90
20041;DHT22;10181;48.072;9.884;2023-04-15T02:40:01;0.60;99.90
20041;DHT22;10181;48.072;9.884;2023-04-15T02:42:27;0.60;99.90
20041;DHT22;10181;48.072;9.884;2023-04-15T02:44:54;0.60;99.90
20041;DHT22;10181;48.072;9.884;2023-04-15T02:47:20;0.60;99.90
20041;DHT22;10181;48.072;9.884;2023-04-15T02:49:47;0.60;99.90
20041;DHT22;10181;48.072;9.884;2023-04-15T02:52:13;0.60;99.90
20041;DHT22;10181;48.072;9.884;2023-04-15T02:54:39;0.60;99.90
20041;DHT22;10181;48.072;9.884;2023-04-15T02:57:05;0.60;99.90
20041;DHT22;10181;48.072;9.884;2023-04-15T02:59:31;0.60;99.90
20041;DHT22;10181;48.072;9.884;2023-04-15T03:01:56;0.60;99.90
20041;DHT22;10181;48.072;9.884;2023-04-15T03:04:25;0.60;99.90
20041;DHT22;10181;48.072;9.884;2023-04-15T03:06:51;0.60;99.90
20041;DHT22;10181;48.072;9.884;2023-04-15T03:09:17;0.60;99.90
20041;DHT22;10181;48.072;9.884;2023-04-15T03:11:43;0.50;99.90
20041;DHT22;10181;48.072;9.884;2023-04-15T03:14:08;0.60;99.90
20041;DHT22;10181;48.072;9.884;2023-04-15T03:16:34;0.50;99.90
20041;DHT22;10181;48.072;9.884;2023-04-15T03:19:00;0.50;99.90
20041;DHT22;10181;48.072;9.884;2023-04-15T03:21:26;0.50;99.90
20041;DHT22;10181;48.072;9.884;2023-04-15T03:23:52;0.60;99.90
20041;DHT22;10181;48.072;9.884;2023-04-15T03:26:30;0.60;99.90
20041;DHT22;10181;48.072;9.884;2023-04-15T03:28:56;0.50;99.90
20041;DHT22;10181;48.072;9.884;2023-04-15T03:31:22;0.50;99.90
20041;DHT22;10181;48.072;9.884;2023-04-15T03:33:48;0.50;99.90
20041;DHT22;10181;48.072;9.884;2023-04-15T03:36:14;0.50;99.90
20041;DHT22;10181;48.072;9.884;2023-04-15T03:38:40;0.50;99.90
20041;DHT22;10181;48.072;9.884;2023-04-15T03:41:06;0.50;99.90
20041;DHT22;10181;48.072;9.884;2023-04-15T03:43:31;0.60;99.90
20041;DHT22;10181;48.072;9.884;2023-04-15T03:45:57;0.60;99.90
20041;DHT22;10181;48.072;9.884;2023-04-15T03:48:23;0.70;99.90
20041;DHT22;10181;48.072;9.884;2023-04-15T03:50:48;0.70;99.90
20041;DHT22;10181;48.072;9.884;2023-04-15T03:53:14;0.70;99.90
20041;DHT22;10181;48.072;9.884;2023-04-15T03:55:40;0.70;99.90
20041;DHT22;10181;48.072;9.884;2023-04-15T03:58:06;0.70;99.90
20041;DHT22;10181;48.072;9.884;2023-04-15T04:00:31;0.60;99.90
20041;DHT22;10181;48.072;9.884;2023-04-15T04:02:57;0.60;99.90
20041;DHT22;10181;48.072;9.884;2023-04-15T04:05:23;0.60;99.90
20041;DHT22;10181;48.072;9.884;2023-04-15T04:07:48;0.60;99.90
20041;DHT22;10181;48.072;9.884;2023-04-15T04:10:14;0.60;99.90
20041;DHT22;10181;48.072;9.884;2023-04-15T04:12:39;0.60;99.90
20041;DHT22;10181;48.072;9.884;2023-04-15T04:15:06;0.60;99.90
20041;DHT22;10181;48.072;9.884;2023-04-15T04:17:32;0.50;99.90
20041;DHT22;10181;48.072;9.884;2023-04-15T04:19:58;0.50;99.90
20041;DHT22;10181;48.072;9.884;2023-04-15T04:22:23;0.40;99.90
20041;DHT22;10181;48.072;9.884;2023-04-15T04:24:49;0.40;99.90
20041;DHT22;10181;48.072;9.884;2023-04-15T04:27:15;0.50;99.90
20041;DHT22;10181;48.072;9.884;2023-04-15T04:29:41;0.50;99.90
20041;DHT22;10181;48.072;9.884;2023-04-15T04:32:07;0.60;99.90
20041;DHT22;10181;48.072;9.884;2023-04-15T04:34:32;0.60;99.90
20041;DHT22;10181;48.072;9.884;2023-04-15T04:36:58;0.60;99.90
20041;DHT22;10181;48.072;9.884;2023-04-15T04:39:24;0.60;99.90
20041;DHT22;10181;48.072;9.884;2023-04-15T04:41:49;0.60;99.90
20041;DHT22;10181;48.072;9.884;2023-04-15T04:44:16;0.70;99.90
20041;DHT22;10181;48.072;9.884;2023-04-15T04:46:42;0.70;99.90
20041;DHT22;10181;48.072;9.884;2023-04-15T04:49:08;0.80;99.90
20041;DHT22;10181;48.072;9.884;2023-04-15T04:51:33;0.90;99.90
20041;DHT22;10181;48.072;9.884;2023-04-15T04:53:59;0.90;99.90
20041;DHT22;10181;48.072;9.884;2023-04-15T04:56:25;1.00;99.90
20041;DHT22;10181;48.072;9.884;2023-04-15T04:58:50;1.10;99.90
20041;DHT22;10181;48.072;9.884;2023-04-15T05:01:16;1.10;99.90
20041;DHT22;10181;48.072;9.884;2023-04-15T05:03:42;1.20;99.90
20041;DHT22;10181;48.072;9.884;2023-04-15T05:06:07;1.20;99.90
20041;DHT22;10181;48.072;9.884;2023-04-15T05:08:33;1.20;99.90
20041;DHT22;10181;48.072;9.884;2023-04-15T05:10:59;1.20;99.90
20041;DHT22;10181;48.072;9.884;2023-04-15T05:13:25;1.20;99.90
20041;DHT22;10181;48.072;9.884;2023-04-15T05:15:50;1.20;99.90
20041;DHT22;10181;48.072;9.884;2023-04-15T05:18:16;1.30;99.90
20041;DHT22;10181;48.072;9.884;2023-04-15T05:20:41;1.30;99.90
20041;DHT22;10181;48.072;9.884;2023-04-15T05:23:07;1.40;99.90
20041;DHT22;10181;48.072;9.884;2023-04-15T05:25:33;1.40;99.90
20041;DHT22;10181;48.072;9.884;2023-04-15T05:27:58;1.40;99.90
20041;DHT22;10181;48.072;9.884;2023-04-15T05:30:24;1.40;99.90
20041;DHT22;10181;48.072;9.884;2023-04-15T05:32:51;1.50;99.90
20041;DHT22;10181;48.072;9.884;2023-04-15T05:35:16;1.50;99.90
20041;DHT22;10181;48.072;9.884;2023-04-15T05:37:42;1.50;99.90
20041;DHT22;10181;48.072;9.884;2023-04-15T05:40:08;1.50;99.90
20041;DHT22;10181;48.072;9.884;2023-04-15T05:42:35;1.50;99.90
20041;DHT22;10181;48.072;9.884;2023-04-15T05:45:00;1.60;99.90
20041;DHT22;10181;48.072;9.884;2023-04-15T05:47:29;1.60;99.90
20041;DHT22;10181;48.072;9.884;2023-04-15T05:49:55;1.70;99.90
20041;DHT22;10181;48.072;9.884;2023-04-15T05:52:23;1.70;99.90
20041;DHT22;10181;48.072;9.884;2023-04-15T05:54:48;1.80;99.90
20041;DHT22;10181;48.072;9.884;2023-04-15T05:57:14;1.90;99.90
20041;DHT22;10181;48.072;9.884;2023-04-15T05:59:40;2.00;99.90
20041;DHT22;10181;48.072;9.884;2023-04-15T06:02:06;2.10;99.90
20041;DHT22;10181;48.072;9.884;2023-04-15T06:04:33;2.30;99.90
20041;DHT22;10181;48.072;9.884;2023-04-15T06:06:58;2.40;99.90
20041;DHT22;10181;48.072;9.884;2023-04-15T06:09:24;2.50;99.90
20041;DHT22;10181;48.072;9.884;2023-04-15T06:11:50;2.60;99.90
20041;DHT22;10181;48.072;9.884;2023-04-15T06:14:16;2.80;99.90
20041;DHT22;10181;48.072;9.884;2023-04-15T06:16:42;2.80;99.90
20041;DHT22;10181;48.072;9.884;2023-04-15T06:19:08;3.00;99.90
20041;DHT22;10181;48.072;9.884;2023-04-15T06:21:33;3.10;99.90
20041;DHT22;10181;48.072;9.884;2023-04-15T06:23:59;3.20;99.90
20041;DHT22;10181;48.072;9.884;2023-04-15T06:26:28;3.30;99.90
20041;DHT22;10181;48.072;9.884;2023-04-15T06:28:53;3.30;99.90
20041;DHT22;10181;48.072;9.884;2023-04-15T06:31:20;3.40;99.90
20041;DHT22;10181;48.072;9.884;2023-04-15T06:33:45;3.40;99.90
20041;DHT22;10181;48.072;9.884;2023-04-15T06:36:11;3.50;99.90
20041;DHT22;10181;48.072;9.884;2023-04-15T06:38:36;3.50;99.90
20041;DHT22;10181;48.072;9.884;2023-04-15T06:41:03;3.70;99.90
20041;DHT22;10181;48.072;9.884;2023-04-15T06:43:28;3.90;99.90
20041;DHT22;10181;48.072;9.884;2023-04-15T06:45:54;4.00;99.90
20041;DHT22;10181;48.072;9.884;2023-04-15T06:48:21;4.20;99.90
20041;DHT22;10181;48.072;9.884;2023-04-15T06:50:47;4.40;99.90
20041;DHT22;10181;48.072;9.884;2023-04-15T06:53:13;4.50;99.90
20041;DHT22;10181;48.072;9.884;2023-04-15T06:55:38;4.70;99.90
20041;DHT22;10181;48.072;9.884;2023-04-15T06:58:06;4.80;99.90
20041;DHT22;10181;48.072;9.884;2023-04-15T07:00:31;4.90;99.90
20041;DHT22;10181;48.072;9.884;2023-04-15T07:02:58;5.00;99.90
20041;DHT22;10181;48.072;9.884;2023-04-15T07:05:27;5.10;99.90
20041;DHT22;10181;48.072;9.884;2023-04-15T07:07:52;5.20;99.90
20041;DHT22;10181;48.072;9.884;2023-04-15T07:10:18;5.30;99.90
20041;DHT22;10181;48.072;9.884;2023-04-15T07:12:44;5.40;99.90
20041;DHT22;10181;48.072;9.884;2023-04-15T07:15:10;5.70;99.90
20041;DHT22;10181;48.072;9.884;2023-04-15T07:17:36;5.80;99.90
20041;DHT22;10181;48.072;9.884;2023-04-15T07:20:03;5.90;99.90
20041;DHT22;10181;48.072;9.884;2023-04-15T07:22:29;5.90;99.90
20041;DHT22;10181;48.072;9.884;2023-04-15T07:24:54;6.00;99.90
20041;DHT22;10181;48.072;9.884;2023-04-15T07:27:20;6.00;99.90
20041;DHT22;10181;48.072;9.884;2023-04-15T07:29:46;5.90;99.90
20041;DHT22;10181;48.072;9.884;2023-04-15T07:32:11;5.90;99.90
20041;DHT22;10181;48.072;9.884;2023-04-15T07:34:37;6.00;99.90
20041;DHT22;10181;48.072;9.884;2023-04-15T07:37:03;6.10;99.90
20041;DHT22;10181;48.072;9.884;2023-04-15T07:39:28;6.20;99.90
20041;DHT22;10181;48.072;9.884;2023-04-15T07:41:54;6.20;99.90
20041;DHT22;10181;48.072;9.884;2023-04-15T07:44:20;6.40;99.90
20041;DHT22;10181;48.072;9.884;2023-04-15T07:46:46;6.60;99.90
20041;DHT22;10181;48.072;9.884;2023-04-15T07:49:12;6.70;99.90
20041;DHT22;10181;48.072;9.884;2023-04-15T07:51:38;6.80;99.90
20041;DHT22;10181;48.072;9.884;2023-04-15T07:54:04;6.90;99.90
20041;DHT22;10181;48.072;9.884;2023-04-15T07:56:30;6.90;99.90
20041;DHT22;10181;48.072;9.884;2023-04-15T07:58:55;7.00;99.90
20041;DHT22;10181;48.072;9.884;2023-04-15T08:01:21;7.00;99.90
20041;DHT22;10181;48.072;9.884;2023-04-15T08:03:47;7.10;99.90
20041;DHT22;10181;48.072;9.884;2023-04-15T08:06:12;7.20;99.90
20041;DHT22;10181;48.072;9.884;2023-04-15T08:08:38;7.20;99.90
20041;DHT22;10181;48.072;9.884;2023-04-15T08:11:04;7.10;99.90
20041;DHT22;10181;48.072;9.884;2023-04-15T08:13:29;7.10;99.90
20041;DHT22;10181;48.072;9.884;2023-04-15T08:16:20;7.10;99.90
20041;DHT22;10181;48.072;9.884;2023-04-15T08:18:47;7.10;99.90
20041;DHT22;10181;48.072;9.884;2023-04-15T08:21:14;7.20;99.90
20041;DHT22;10181;48.072;9.884;2023-04-15T08:23:40;7.30;99.90
20041;DHT22;10181;48.072;9.884;2023-04-15T08:26:07;7.40;99.90
20041;DHT22;10181;48.072;9.884;2023-04-15T08:28:33;7.40;99.90
20041;DHT22;10181;48.072;9.884;2023-04-15T08:30:59;7.50;99.90
20041;DHT22;10181;48.072;9.884;2023-04-15T08:33:24;7.70;99.90
20041;DHT22;10181;48.072;9.884;2023-04-15T08:35:50;7.80;99.90
20041;DHT22;10181;48.072;9.884;2023-04-15T08:38:16;7.90;99.90
20041;DHT22;10181;48.072;9.884;2023-04-15T08:40:44;8.10;99.90
20041;DHT22;10181;48.072;9.884;2023-04-15T08:43:20;8.20;99.90
20041;DHT22;10181;48.072;9.884;2023-04-15T08:45:47;8.20;99.90
20041;DHT22;10181;48.072;9.884;2023-04-15T08:48:16;8.40;99.90
20041;DHT22;10181;48.072;9.884;2023-04-15T08:50:42;8.40;99.90
20041;DHT22;10181;48.072;9.884;2023-04-15T08:53:09;8.50;99.90
20041;DHT22;10181;48.072;9.884;2023-04-15T08:55:35;8.80;99.90
20041;DHT22;10181;48.072;9.884;2023-04-15T08:58:05;8.90;99.90
20041;DHT22;10181;48.072;9.884;2023-04-15T09:00:31;9.10;99.90
20041;DHT22;10181;48.072;9.884;2023-04-15T09:02:58;9.30;99.90
20041;DHT22;10181;48.072;9.884;2023-04-15T09:05:25;9.50;99.90
20041;DHT22;10181;48.072;9.884;2023-04-15T09:07:50;9.70;99.90
20041;DHT22;10181;48.072;9.884;2023-04-15T09:10:16;9.90;99.90
20041;DHT22;10181;48.072;9.884;2023-04-15T09:12:42;10.00;99.90
20041;DHT22;10181;48.072;9.884;2023-04-15T09:15:10;9.60;99.90
20041;DHT22;10181;48.072;9.884;2023-04-15T09:17:42;9.30;99.90
20041;DHT22;10181;48.072;9.884;2023-04-15T09:20:09;9.20;99.90
20041;DHT22;10181;48.072;9.884;2023-04-15T09:22:35;9.00;99.90
20041;DHT22;10181;48.072;9.884;2023-04-15T09:25:02;9.00;99.90
20041;DHT22;10181;48.072;9.884;2023-04-15T09:27:28;9.10;99.90
20041;DHT22;10181;48.072;9.884;2023-04-15T09:29:54;9.40;99.90
20041;DHT22;10181;48.072;9.884;2023-04-15T09:32:19;9.50;99.90
20041;DHT22;10181;48.072;9.884;2023-04-15T09:34:49;9.70;99.90
20041;DHT22;10181;48.072;9.884;2023-04-15T09:37:15;9.80;99.90
20041;DHT22;10181;48.072;9.884;2023-04-15T09:39:45;9.80;99.90
20041;DHT22;10181;48.072;9.884;2023-04-15T09:42:12;9.80;99.90
20041;DHT22;10181;48.072;9.884;2023-04-15T09:44:38;9.60;99.90
20041;DHT22;10181;48.072;9.884;2023-04-15T09:47:04;9.60;99.90
20041;DHT22;10181;48.072;9.884;2023-04-15T09:49:30;9.60;99.90
20041;DHT22;10181;48.072;9.884;2023-04-15T09:52:00;9.80;99.90
20041;DHT22;10181;48.072;9.884;2023-04-15T09:54:33;9.90;99.90
20041;DHT22;10181;48.072;9.884;2023-04-15T09:57:05;9.90;99.90
20041;DHT22;10181;48.072;9.884;2023-04-15T09:59:30;9.90;99.90
20041;DHT22;10181;48.072;9.884;2023-04-15T10:01:56;9.80;99.90
20041;DHT22;10181;48.072;9.884;2023-04-15T10:04:22;9.70;99.90
20041;DHT22;10181;48.072;9.884;2023-04-15T10:06:49;9.80;99.90
20041;DHT22;10181;48.072;9.884;2023-04-15T10:09:15;9.70;99.90
20041;DHT22;10181;48.072;9.884;2023-04-15T10:11:42;9.80;99.90
20041;DHT22;10181;48.072;9.884;2023-04-15T10:14:09;9.90;99.90
20041;DHT22;10181;48.072;9.884;2023-04-15T10:16:38;10.00;99.90
20041;DHT22;10181;48.072;9.884;2023-04-15T10:19:07;10.10;99.90
20041;DHT22;10181;48.072;9.884;2023-04-15T10:21:34;10.20;99.90
20041;DHT22;10181;48.072;9.884;2023-04-15T10:24:01;10.50;99.90
20041;DHT22;10181;48.072;9.884;2023-04-15T10:26:27;10.40;99.90
20041;DHT22;10181;48.072;9.884;2023-04-15T10:28:53;10.50;99.90
20041;DHT22;10181;48.072;9.884;2023-04-15T10:31:20;10.60;99.90
20041;DHT22;10181;48.072;9.884;2023-04-15T10:33:46;10.50;99.90
20041;DHT22;10181;48.072;9.884;2023-04-15T10:36:13;10.50;99.90
20041;DHT22;10181;48.072;9.884;2023-04-15T10:38:44;10.60;99.90
20041;DHT22;10181;48.072;9.884;2023-04-15T10:46:22;10.80;99.90
20041;DHT22;10181;48.072;9.884;2023-04-15T10:48:50;10.90;99.90
20041;DHT22;10181;48.072;9.884;2023-04-15T10:51:16;11.00;99.90
20041;DHT22;10181;48.072;9.884;2023-04-15T10:53:50;11.00;99.90
20041;DHT22;10181;48.072;9.884;2023-04-15T10:56:20;11.10;99.90
20041;DHT22;10181;48.072;9.884;2023-04-15T10:58:46;11.20;99.90
20041;DHT22;10181;48.072;9.884;2023-04-15T11:01:12;11.30;99.90
20041;DHT22;10181;48.072;9.884;2023-04-15T11:03:39;11.50;99.90
20041;DHT22;10181;48.072;9.884;2023-04-15T11:06:07;11.70;99.90
20041;DHT22;10181;48.072;9.884;2023-04-15T11:08:52;11.60;99.70
20041;DHT22;10181;48.072;9.884;2023-04-15T11:11:18;11.60;99.90
20041;DHT22;10181;48.072;9.884;2023-04-15T11:13:49;11.80;99.90
20041;DHT22;10181;48.072;9.884;2023-04-15T11:16:15;11.60;99.90
20041;DHT22;10181;48.072;9.884;2023-04-15T11:18:41;11.70;99.90
20041;DHT22;10181;48.072;9.884;2023-04-15T11:21:07;11.80;99.90
20041;DHT22;10181;48.072;9.884;2023-04-15T11:26:03;11.70;98.90
20041;DHT22;10181;48.072;9.884;2023-04-15T11:28:34;11.70;99.90
20041;DHT22;10181;48.072;9.884;2023-04-15T11:31:11;11.70;99.60
20041;DHT22;10181;48.072;9.884;2023-04-15T11:33:45;11.60;98.40
20041;DHT22;10181;48.072;9.884;2023-04-15T11:36:11;11.50;95.90
20041;DHT22;10181;48.072;9.884;2023-04-15T11:38:37;11.50;98.20
20041;DHT22;10181;48.072;9.884;2023-04-15T11:41:06;11.70;99.50
20041;DHT22;10181;48.072;9.884;2023-04-15T11:43:32;11.90;98.10
20041;DHT22;10181;48.072;9.884;2023-04-15T11:46:01;12.00;99.90
20041;DHT22;10181;48.072;9.884;2023-04-15T11:48:33;12.20;98.10
20041;DHT22;10181;48.072;9.884;2023-04-15T11:51:04;12.20;99.30
20041;DHT22;10181;48.072;9.884;2023-04-15T11:53:46;12.70;97.40
20041;DHT22;10181;48.072;9.884;2023-04-15T11:56:20;12.80;98.10
20041;DHT22;10181;48.072;9.884;2023-04-15T11:58:47;12.60;96.70
20041;DHT22;10181;48.072;9.884;2023-04-15T12:01:14;12.40;97.80
20041;DHT22;10181;48.072;9.884;2023-04-15T12:03:42;13.00;99.90
20041;DHT22;10181;48.072;9.884;2023-04-15T12:11:15;13.70;98.60
20041;DHT22;10181;48.072;9.884;2023-04-15T12:13:47;13.50;94.10
20041;DHT22;10181;48.072;9.884;2023-04-15T12:16:17;12.90;94.00
20041;DHT22;10181;48.072;9.884;2023-04-15T12:18:51;12.50;93.50
20041;DHT22;10181;48.072;9.884;2023-04-15T12:21:32;12.20;95.30
20041;DHT22;10181;48.072;9.884;2023-04-15T12:24:02;11.90;95.40
20041;DHT22;10181;48.072;9.884;2023-04-15T12:26:51;11.60;93.80
20041;DHT22;10181;48.072;9.884;2023-04-15T12:29:16;11.40;94.10
20041;DHT22;10181;48.072;9.884;2023-04-15T12:31:53;11.30;94.00
20041;DHT22;10181;48.072;9.884;2023-04-15T12:34:33;11.20;93.80
20041;DHT22;10181;48.072;9.884;2023-04-15T12:37:02;11.20;95.10
20041;DHT22;10181;48.072;9.884;2023-04-15T12:39:30;11.20;94.00
20041;DHT22;10181;48.072;9.884;2023-04-15T12:41:57;11.20;93.80
20041;DHT22;10181;48.072;9.884;2023-04-15T12:44:23;11.20;96.80
20041;DHT22;10181;48.072;9.884;2023-04-15T12:46:50;11.30;94.10
20041;DHT22;10181;48.072;9.884;2023-04-15T12:49:17;11.30;94.00
20041;DHT22;10181;48.072;9.884;2023-04-15T12:51:46;11.30;94.50
20041;DHT22;10181;48.072;9.884;2023-04-15T12:54:13;11.40;94.70
20041;DHT22;10181;48.072;9.884;2023-04-15T12:56:38;11.40;92.60
20041;DHT22;10181;48.072;9.884;2023-04-15T12:59:04;11.30;93.50
20041;DHT22;10181;48.072;9.884;2023-04-15T13:01:30;11.30;93.90
20041;DHT22;10181;48.072;9.884;2023-04-15T13:03:55;11.30;91.80
20041;DHT22;10181;48.072;9.884;2023-04-15T13:06:21;11.30;92.70
20041;DHT22;10181;48.072;9.884;2023-04-15T13:08:48;11.40;93.20
20041;DHT22;10181;48.072;9.884;2023-04-15T13:11:14;11.50;92.70
20041;DHT22;10181;48.072;9.884;2023-04-15T13:13:39;11.50;93.10
20041;DHT22;10181;48.072;9.884;2023-04-15T13:16:05;11.70;93.30
20041;DHT22;10181;48.072;9.884;2023-04-15T13:18:31;11.80;93.20
20041;DHT22;10181;48.072;9.884;2023-04-15T13:20:59;11.90;94.20
20041;DHT22;10181;48.072;9.884;2023-04-15T13:23:25;11.90;92.90
20041;DHT22;10181;48.072;9.884;2023-04-15T13:25:50;11.90;92.00
20041;DHT22;10181;48.072;9.884;2023-04-15T13:28:16;11.80;92.30
20041;DHT22;10181;48.072;9.884;2023-04-15T13:30:42;11.80;93.60
20041;DHT22;10181;48.072;9.884;2023-04-15T13:33:08;11.70;92.90
20041;DHT22;10181;48.072;9.884;2023-04-15T13:35:34;11.70;93.70
20041;DHT22;10181;48.072;9.884;2023-04-15T13:38:00;11.60;93.90
20041;DHT22;10181;48.072;9.884;2023-04-15T13:40:26;11.50;94.00
20041;DHT22;10181;48.072;9.884;2023-04-15T13:42:52;11.50;92.90
20041;DHT22;10181;48.072;9.884;2023-04-15T13:45:18;11.50;91.80
20041;DHT22;10181;48.072;9.884;2023-04-15T13:47:43;11.50;92.60
20041;DHT22;10181;48.072;9.884;2023-04-15T13:50:09;11.40;92.60
20041;DHT22;10181;48.072;9.884;2023-04-15T13:52:35;11.40;94.20
20041;DHT22;10181;48.072;9.884;2023-04-15T13:55:02;11.40;93.00
20041;DHT22;10181;48.072;9.884;2023-04-15T13:57:28;11.40;93.80
20041;DHT22;10181;48.072;9.884;2023-04-15T13:59:54;11.40;91.70
20041;DHT22;10181;48.072;9.884;2023-04-15T14:02:20;11.40;92.30
20041;DHT22;10181;48.072;9.884;2023-04-15T14:04:46;11.40;91.40
20041;DHT22;10181;48.072;9.884;2023-04-15T14:07:11;11.50;92.80
20041;DHT22;10181;48.072;9.884;2023-04-15T14:09:37;11.70;96.60
20041;DHT22;10181;48.072;9.884;2023-04-15T14:12:03;11.80;97.70
20041;DHT22;10181;48.072;9.884;2023-04-15T14:14:29;11.70;98.40
20041;DHT22;10181;48.072;9.884;2023-04-15T14:16:55;11.60;98.60
20041;DHT22;10181;48.072;9.884;2023-04-15T14:19:22;11.40;99.00
20041;DHT22;10181;48.072;9.884;2023-04-15T14:21:48;11.30;99.80
20041;DHT22;10181;48.072;9.884;2023-04-15T14:24:14;11.20;99.90
20041;DHT22;10181;48.072;9.884;2023-04-15T14:26:39;11.10;99.90
20041;DHT22;10181;48.072;9.884;2023-04-15T14:29:08;10.90;99.90
20041;DHT22;10181;48.072;9.884;2023-04-15T14:31:34;10.80;99.10
20041;DHT22;10181;48.072;9.884;2023-04-15T14:33:59;10.30;99.90
20041;DHT22;10181;48.072;9.884;2023-04-15T14:36:25;9.90;99.90
20041;DHT22;10181;48.072;9.884;2023-04-15T14:38:51;9.60;99.90
20041;DHT22;10181;48.072;9.884;2023-04-15T14:41:17;9.30;99.90
20041;DHT22;10181;48.072;9.884;2023-04-15T14:43:42;9.10;99.90
20041;DHT22;10181;48.072;9.884;2023-04-15T14:46:09;8.90;99.90
20041;DHT22;10181;48.072;9.884;2023-04-15T14:48:35;8.80;99.90
20041;DHT22;10181;48.072;9.884;2023-04-15T14:51:01;8.70;99.90
20041;DHT22;10181;48.072;9.884;2023-04-15T14:53:27;8.60;99.90
20041;DHT22;10181;48.072;9.884;2023-04-15T14:55:52;8.50;99.90
20041;DHT22;10181;48.072;9.884;2023-04-15T14:58:18;8.40;99.90
20041;DHT22;10181;48.072;9.884;2023-04-15T15:00:44;8.40;99.90
20041;DHT22;10181;48.072;9.884;2023-04-15T15:03:10;8.40;99.90
20041;DHT22;10181;48.072;9.884;2023-04-15T15:05:40;8.40;99.90
20041;DHT22;10181;48.072;9.884;2023-04-15T15:08:07;8.40;99.90
20041;DHT22;10181;48.072;9.884;2023-04-15T15:10:33;8.40;99.90
20041;DHT22;10181;48.072;9.884;2023-04-15T15:12:59;8.40;99.90
20041;DHT22;10181;48.072;9.884;2023-04-15T15:15:24;8.40;99.90
20041;DHT22;10181;48.072;9.884;2023-04-15T15:17:50;8.40;99.90
20041;DHT22;10181;48.072;9.884;2023-04-15T15:20:16;8.40;99.90
20041;DHT22;10181;48.072;9.884;2023-04-15T15:22:43;8.30;99.90
20041;DHT22;10181;48.072;9.884;2023-04-15T15:25:09;8.30;99.90
20041;DHT22;10181;48.072;9.884;2023-04-15T15:27:34;8.20;99.90
20041;DHT22;10181;48.072;9.884;2023-04-15T15:30:00;8.20;99.90
20041;DHT22;10181;48.072;9.884;2023-04-15T15:32:26;8.20;99.90
20041;DHT22;10181;48.072;9.884;2023-04-15T15:34:51;8.20;99.90
20041;DHT22;10181;48.072;9.884;2023-04-15T15:37:17;8.30;99.90
20041;DHT22;10181;48.072;9.884;2023-04-15T15:39:43;8.30;99.90
20041;DHT22;10181;48.072;9.884;2023-04-15T15:42:08;8.20;99.90
20041;DHT22;10181;48.072;9.884;2023-04-15T15:44:34;8.30;99.90
20041;DHT22;10181;48.072;9.884;2023-04-15T15:47:03;8.20;99.90
20041;DHT22;10181;48.072;9.884;2023-04-15T15:49:29;8.20;99.90
20041;DHT22;10181;48.072;9.884;2023-04-15T15:51:55;8.30;99.90